createdAt,value
2018-08-24T00:00:03.585Z,63.30
2018-08-24T00:01:07.005Z,63.40
2018-08-24T00:02:10.636Z,63.40
2018-08-24T00:03:14.124Z,63.50
2018-08-24T00:04:17.630Z,63.50
2018-08-24T00:05:21.032Z,63.60
2018-08-24T00:06:24.347Z,63.60
2018-08-24T00:07:27.894Z,63.50
2018-08-24T00:08:31.652Z,63.50
2018-08-24T00:09:35.018Z,63.60
2018-08-24T00:10:38.885Z,63.70
2018-08-24T00:11:42.423Z,63.70
2018-08-24T00:12:45.915Z,63.60
2018-08-24T00:13:49.396Z,63.60
2018-08-24T00:14:52.836Z,63.80
2018-08-24T00:15:56.336Z,63.80
2018-08-24T00:16:59.977Z,63.70
2018-08-24T00:18:03.582Z,63.50
2018-08-24T00:19:11.139Z,63.50
2018-08-24T00:20:14.659Z,63.60
2018-08-24T00:21:18.019Z,63.60
2018-08-24T00:22:21.543Z,63.60
2018-08-24T00:23:25.206Z,63.70
2018-08-24T00:24:28.896Z,63.70
2018-08-24T00:25:32.700Z,64.00
2018-08-24T00:26:36.388Z,64.00
2018-08-24T00:27:39.760Z,64.00
2018-08-24T00:28:43.319Z,63.90
2018-08-24T00:29:46.818Z,63.90
2018-08-24T00:30:50.387Z,63.90
2018-08-24T00:31:53.763Z,63.80
2018-08-24T00:32:57.158Z,63.90
2018-08-24T00:34:00.754Z,64.10
2018-08-24T00:35:04.655Z,64.10
2018-08-24T00:36:08.098Z,64.20
2018-08-24T00:37:11.717Z,64.10
2018-08-24T00:38:15.309Z,64.30
2018-08-24T00:39:18.872Z,64.30
2018-08-24T00:40:22.762Z,64.30
2018-08-24T00:41:26.384Z,64.50
2018-08-24T00:42:29.779Z,64.70
2018-08-24T00:43:33.366Z,64.70
2018-08-24T00:44:36.931Z,64.70
2018-08-24T00:45:40.312Z,64.80
2018-08-24T00:46:44.006Z,64.80
2018-08-24T00:47:47.426Z,64.80
2018-08-24T00:48:50.872Z,64.80
2018-08-24T00:49:54.349Z,64.90
2018-08-24T00:50:57.955Z,65.00
2018-08-24T00:52:01.552Z,64.90
2018-08-24T00:53:05.069Z,65.60
2018-08-24T00:54:08.655Z,64.80
2018-08-24T00:55:12.297Z,64.90
2018-08-24T00:56:15.803Z,64.90
2018-08-24T00:57:19.463Z,65.00
2018-08-24T00:58:22.955Z,64.90
2018-08-24T00:59:26.591Z,64.90
2018-08-24T01:00:35.733Z,65.00
2018-08-24T01:01:39.098Z,65.10
2018-08-24T01:02:42.471Z,65.90
2018-08-24T01:03:45.962Z,65.20
2018-08-24T01:04:49.462Z,65.40
2018-08-24T01:05:53.181Z,65.50
2018-08-24T01:06:56.591Z,65.70
2018-08-24T01:08:05.694Z,65.60
2018-08-24T01:09:11.111Z,65.80
2018-08-24T01:10:20.143Z,65.90
2018-08-24T01:11:28.079Z,66.00
2018-08-24T01:12:31.514Z,66.10
2018-08-24T01:13:34.813Z,66.20
2018-08-24T01:14:40.305Z,66.20
2018-08-24T01:15:51.431Z,66.10
2018-08-24T01:17:00.828Z,66.20
2018-08-24T01:18:09.948Z,66.30
2018-08-24T01:19:13.269Z,66.40
2018-08-24T01:20:16.722Z,66.30
2018-08-24T01:21:20.188Z,66.50
2018-08-24T01:22:23.665Z,66.40
2018-08-24T01:23:28.569Z,66.50
2018-08-24T01:24:32.133Z,66.60
2018-08-24T01:25:35.823Z,66.70
2018-08-24T01:26:39.659Z,67.30
2018-08-24T01:27:43.205Z,66.60
2018-08-24T01:28:46.907Z,66.40
2018-08-24T01:29:50.266Z,66.40
2018-08-24T01:30:53.960Z,67.20
2018-08-24T01:31:57.550Z,66.70
2018-08-24T01:33:00.999Z,66.60
2018-08-24T01:34:04.467Z,66.60
2018-08-24T01:35:07.901Z,66.50
2018-08-24T01:36:11.387Z,66.60
2018-08-24T01:37:14.927Z,66.40
2018-08-24T01:38:18.564Z,66.40
2018-08-24T01:39:21.949Z,66.30
2018-08-24T01:40:25.517Z,66.30
2018-08-24T01:41:28.971Z,66.40
2018-08-24T01:42:32.615Z,66.40
2018-08-24T01:43:36.117Z,66.40
2018-08-24T01:44:39.994Z,66.70
2018-08-24T01:45:43.734Z,66.60
2018-08-24T01:46:47.261Z,66.80
2018-08-24T01:47:50.957Z,66.80
2018-08-24T01:48:54.381Z,67.00
2018-08-24T01:49:57.783Z,67.00
2018-08-24T01:51:01.237Z,67.10
2018-08-24T01:52:04.697Z,66.80
2018-08-24T01:53:08.431Z,66.60
2018-08-24T01:54:12.025Z,66.60
2018-08-24T01:55:15.428Z,66.60
2018-08-24T01:56:19.079Z,66.60
2018-08-24T01:57:22.563Z,66.90
2018-08-24T01:58:25.966Z,67.00
2018-08-24T01:59:29.343Z,67.20
2018-08-24T02:00:33.015Z,67.40
2018-08-24T02:01:36.775Z,67.40
2018-08-24T02:02:40.890Z,67.50
2018-08-24T02:03:44.379Z,67.70
2018-08-24T02:04:47.716Z,67.70
2018-08-24T02:05:53.837Z,67.70
2018-08-24T02:06:57.459Z,67.70
2018-08-24T02:08:00.979Z,67.90
2018-08-24T02:09:08.872Z,67.90
2018-08-24T02:10:17.861Z,68.30
2018-08-24T02:11:26.938Z,67.60
2018-08-24T02:12:36.045Z,67.50
2018-08-24T02:13:46.473Z,67.40
2018-08-24T02:14:50.092Z,67.30
2018-08-24T02:15:53.709Z,67.80
2018-08-24T02:16:57.173Z,67.60
2018-08-24T02:18:06.020Z,67.70
2018-08-24T02:19:11.124Z,67.70
2018-08-24T02:20:19.955Z,67.60
2018-08-24T02:21:28.825Z,67.80
2018-08-24T02:22:32.489Z,67.90
2018-08-24T02:23:36.059Z,68.20
2018-08-24T02:24:39.743Z,68.30
2018-08-24T02:25:44.011Z,68.60
2018-08-24T02:26:47.390Z,69.00
2018-08-24T02:27:51.289Z,69.20
2018-08-24T02:28:54.619Z,69.40
2018-08-24T02:29:58.087Z,69.20
2018-08-24T02:31:01.867Z,69.40
2018-08-24T02:32:06.539Z,69.90
2018-08-24T02:33:10.072Z,70.80
2018-08-24T02:34:13.883Z,71.40
2018-08-24T02:35:19.913Z,73.00
2018-08-24T02:36:23.628Z,74.50
2018-08-24T02:37:28.843Z,75.20
2018-08-24T02:38:32.440Z,75.70
2018-08-24T02:39:36.087Z,76.20
2018-08-24T02:40:39.560Z,76.90
2018-08-24T02:41:43.406Z,77.10
2018-08-24T02:42:47.738Z,77.50
2018-08-24T02:43:51.362Z,78.50
2018-08-24T02:44:54.783Z,78.40
2018-08-24T02:45:58.140Z,78.40
2018-08-24T02:47:01.844Z,78.70
2018-08-24T02:48:05.583Z,78.50
2018-08-24T02:49:09.116Z,78.70
2018-08-24T02:50:12.492Z,79.00
2018-08-24T02:51:15.829Z,79.30
2018-08-24T02:52:19.225Z,80.00
2018-08-24T02:53:22.956Z,80.10
2018-08-24T02:54:26.379Z,80.50
2018-08-24T02:55:29.815Z,80.40
2018-08-24T02:56:36.107Z,79.90
2018-08-24T02:57:39.546Z,79.60
2018-08-24T02:58:43.066Z,79.90
2018-08-24T02:59:46.657Z,80.30
2018-08-24T03:00:50.077Z,80.60
2018-08-24T03:01:53.556Z,80.90
2018-08-24T03:02:57.004Z,81.10
2018-08-24T03:04:00.822Z,81.20
2018-08-24T03:05:04.412Z,80.90
2018-08-24T03:06:07.737Z,80.50
2018-08-24T03:07:11.207Z,80.10
2018-08-24T03:08:14.749Z,79.40
2018-08-24T03:09:18.569Z,80.20
2018-08-24T03:10:22.287Z,78.70
2018-08-24T03:11:25.845Z,80.20
2018-08-24T03:12:29.464Z,78.50
2018-08-24T03:13:32.957Z,79.30
2018-08-24T03:14:36.267Z,80.90
2018-08-24T03:15:39.905Z,80.70
2018-08-24T03:16:47.833Z,80.10
2018-08-24T03:17:53.562Z,79.60
2018-08-24T03:18:57.098Z,79.80
2018-08-24T03:20:00.624Z,79.90
2018-08-24T03:21:04.035Z,80.70
2018-08-24T03:22:07.422Z,81.00
2018-08-24T03:23:10.949Z,80.80
2018-08-24T03:24:14.580Z,80.60
2018-08-24T03:25:17.967Z,80.70
2018-08-24T03:26:21.530Z,81.40
2018-08-24T03:27:25.054Z,81.00
2018-08-24T03:28:28.686Z,81.00
2018-08-24T03:29:32.667Z,81.00
2018-08-24T03:30:36.048Z,81.60
2018-08-24T03:31:39.686Z,80.50
2018-08-24T03:32:43.435Z,80.60
2018-08-24T03:33:47.158Z,80.30
2018-08-24T03:34:50.836Z,80.30
2018-08-24T03:35:54.246Z,80.50
2018-08-24T03:36:57.875Z,80.20
2018-08-24T03:38:01.576Z,80.60
2018-08-24T03:39:08.581Z,80.50
2018-08-24T03:40:12.108Z,80.60
2018-08-24T03:41:16.000Z,80.50
2018-08-24T03:42:19.435Z,80.60
2018-08-24T03:43:22.904Z,79.20
2018-08-24T03:44:26.423Z,80.30
2018-08-24T03:45:30.209Z,80.60
2018-08-24T03:46:33.811Z,80.90
2018-08-24T03:47:37.276Z,80.90
2018-08-24T03:48:40.839Z,81.10
2018-08-24T03:49:44.349Z,80.00
2018-08-24T03:50:48.020Z,81.00
2018-08-24T03:51:51.752Z,81.00
2018-08-24T03:52:55.259Z,81.30
2018-08-24T03:53:58.577Z,80.70
2018-08-24T03:55:01.946Z,81.30
2018-08-24T03:56:05.659Z,81.10
2018-08-24T03:57:09.100Z,81.00
2018-08-24T03:58:12.774Z,80.80
2018-08-24T03:59:16.159Z,81.40
2018-08-24T04:00:19.710Z,81.60
2018-08-24T04:01:23.330Z,81.30
2018-08-24T04:02:26.987Z,81.30
2018-08-24T04:03:30.581Z,81.10
2018-08-24T04:04:34.059Z,81.30
2018-08-24T04:05:37.527Z,81.30
2018-08-24T04:06:41.388Z,81.10
2018-08-24T04:07:45.015Z,80.50
2018-08-24T04:08:48.471Z,80.90
2018-08-24T04:09:51.923Z,81.30
2018-08-24T04:10:55.513Z,80.60
2018-08-24T04:11:59.240Z,80.80
2018-08-24T04:13:03.182Z,80.50
2018-08-24T04:14:06.568Z,80.60
2018-08-24T04:15:09.951Z,80.50
2018-08-24T04:16:13.539Z,80.10
2018-08-24T04:17:22.848Z,80.50
2018-08-24T04:18:26.484Z,80.60
2018-08-24T04:19:30.025Z,80.40
2018-08-24T04:20:33.264Z,80.20
2018-08-24T04:21:36.601Z,80.50
2018-08-24T04:22:41.020Z,80.00
2018-08-24T04:23:44.787Z,80.50
2018-08-24T04:24:48.370Z,80.30
2018-08-24T04:25:51.975Z,80.70
2018-08-24T04:26:56.852Z,80.90
2018-08-24T04:28:00.337Z,80.50
2018-08-24T04:29:04.064Z,80.10
2018-08-24T04:30:08.343Z,80.20
2018-08-24T04:31:11.998Z,80.00
2018-08-24T04:32:15.675Z,79.90
2018-08-24T04:33:19.199Z,79.40
2018-08-24T04:34:22.687Z,78.60
2018-08-24T04:35:26.319Z,79.10
2018-08-24T04:36:30.692Z,78.70
2018-08-24T04:37:34.533Z,78.30
2018-08-24T04:38:38.122Z,79.10
2018-08-24T04:39:41.736Z,78.80
2018-08-24T04:40:45.592Z,77.20
2018-08-24T04:41:49.171Z,78.10
2018-08-24T04:42:52.762Z,77.20
2018-08-24T04:43:56.653Z,77.30
2018-08-24T04:45:00.200Z,76.90
2018-08-24T04:46:03.734Z,77.30
2018-08-24T04:47:07.170Z,76.90
2018-08-24T04:48:10.854Z,76.50
2018-08-24T04:49:14.359Z,77.20
2018-08-24T04:50:17.949Z,76.50
2018-08-24T04:51:21.562Z,76.20
2018-08-24T04:52:25.098Z,76.60
2018-08-24T04:53:28.763Z,75.80
2018-08-24T04:54:32.451Z,77.40
2018-08-24T04:55:36.130Z,76.60
2018-08-24T04:56:40.689Z,77.00
2018-08-24T04:57:44.146Z,78.30
2018-08-24T04:58:47.950Z,78.40
2018-08-24T04:59:51.943Z,78.10
2018-08-24T05:00:55.526Z,77.90
2018-08-24T05:01:58.957Z,77.60
2018-08-24T05:03:03.289Z,77.10
2018-08-24T05:04:07.592Z,77.00
2018-08-24T05:05:11.148Z,76.80
2018-08-24T05:06:14.717Z,77.10
2018-08-24T05:07:18.334Z,77.50
2018-08-24T05:08:21.985Z,77.80
2018-08-24T05:09:25.751Z,78.90
2018-08-24T05:10:29.151Z,77.30
2018-08-24T05:11:32.614Z,77.70
2018-08-24T05:12:36.232Z,77.50
2018-08-24T05:13:39.865Z,77.10
2018-08-24T05:14:43.670Z,76.50
2018-08-24T05:15:47.164Z,76.40
2018-08-24T05:16:50.730Z,76.00
2018-08-24T05:17:54.228Z,75.90
2018-08-24T05:18:57.827Z,75.90
2018-08-24T05:20:01.614Z,76.30
2018-08-24T05:21:05.207Z,76.80
2018-08-24T05:22:08.739Z,76.00
2018-08-24T05:23:12.235Z,75.20
2018-08-24T05:24:15.631Z,74.80
2018-08-24T05:25:19.152Z,75.20
2018-08-24T05:26:22.720Z,75.90
2018-08-24T05:27:26.087Z,75.70
2018-08-24T05:28:29.539Z,75.50
2018-08-24T05:29:33.031Z,75.00
2018-08-24T05:30:36.375Z,74.70
2018-08-24T05:31:39.936Z,75.90
2018-08-24T05:32:43.598Z,76.10
2018-08-24T05:33:47.012Z,75.20
2018-08-24T05:34:50.657Z,74.90
2018-08-24T05:35:54.598Z,74.70
2018-08-24T05:36:58.321Z,75.00
2018-08-24T05:38:01.655Z,74.80
2018-08-24T05:39:07.729Z,74.80
2018-08-24T05:40:11.062Z,75.00
2018-08-24T05:41:14.506Z,74.20
2018-08-24T05:42:18.044Z,74.40
2018-08-24T05:43:21.713Z,74.50
2018-08-24T05:44:25.423Z,73.90
2018-08-24T05:45:28.950Z,74.30
2018-08-24T05:46:32.770Z,74.70
2018-08-24T05:47:36.761Z,74.70
2018-08-24T05:48:40.428Z,73.70
2018-08-24T05:49:44.316Z,73.90
2018-08-24T05:50:47.847Z,74.60
2018-08-24T05:51:51.302Z,75.00
2018-08-24T05:52:54.902Z,75.10
2018-08-24T05:53:58.338Z,74.70
2018-08-24T05:55:01.905Z,73.90
2018-08-24T05:56:05.265Z,74.20
2018-08-24T05:57:08.957Z,75.10
2018-08-24T05:58:12.464Z,75.20
2018-08-24T05:59:16.011Z,74.50
2018-08-24T06:00:24.154Z,75.30
2018-08-24T06:01:27.916Z,74.10
2018-08-24T06:02:31.599Z,74.80
2018-08-24T06:03:35.165Z,74.80
2018-08-24T06:04:38.607Z,73.40
2018-08-24T06:05:47.740Z,73.30
2018-08-24T06:06:51.144Z,72.40
2018-08-24T06:07:54.564Z,73.40
2018-08-24T06:09:03.684Z,74.20
2018-08-24T06:10:07.417Z,74.90
2018-08-24T06:11:10.844Z,73.60
2018-08-24T06:12:14.325Z,74.10
2018-08-24T06:13:18.805Z,74.60
2018-08-24T06:14:22.255Z,74.70
2018-08-24T06:15:25.795Z,74.80
2018-08-24T06:16:29.294Z,74.00
2018-08-24T06:17:39.517Z,73.70
2018-08-24T06:18:42.908Z,74.40
2018-08-24T06:19:46.277Z,73.60
2018-08-24T06:20:50.185Z,73.50
2018-08-24T06:21:54.058Z,74.10
2018-08-24T06:22:57.957Z,74.30
2018-08-24T06:24:01.312Z,73.60
2018-08-24T06:25:04.834Z,73.30
2018-08-24T06:26:08.431Z,73.60
2018-08-24T06:27:11.871Z,73.80
2018-08-24T06:28:15.445Z,73.90
2018-08-24T06:29:18.851Z,73.80
2018-08-24T06:30:22.427Z,73.90
2018-08-24T06:31:26.204Z,72.60
2018-08-24T06:32:29.905Z,72.60
2018-08-24T06:33:33.451Z,72.50
2018-08-24T06:34:36.953Z,72.60
2018-08-24T06:35:40.333Z,72.60
2018-08-24T06:36:44.045Z,73.00
2018-08-24T06:37:47.491Z,73.20
2018-08-24T06:38:51.395Z,73.30
2018-08-24T06:39:54.925Z,73.00
2018-08-24T06:40:59.094Z,72.40
2018-08-24T06:42:02.764Z,71.80
2018-08-24T06:43:06.208Z,70.70
2018-08-24T06:44:09.887Z,71.30
2018-08-24T06:45:13.367Z,72.20
2018-08-24T06:46:16.933Z,72.40
2018-08-24T06:47:20.679Z,72.20
2018-08-24T06:49:35.581Z,73.00
2018-08-24T06:50:39.208Z,71.90
2018-08-24T06:51:42.688Z,71.40
2018-08-24T06:52:46.283Z,72.20
2018-08-24T06:53:49.876Z,72.70
2018-08-24T06:54:53.392Z,71.50
2018-08-24T06:55:57.278Z,72.20
2018-08-24T06:57:00.781Z,73.00
2018-08-24T06:58:04.457Z,72.70
2018-08-24T06:59:07.840Z,72.40
2018-08-24T07:00:11.452Z,72.70
2018-08-24T07:01:15.065Z,72.10
2018-08-24T07:02:18.641Z,72.10
2018-08-24T07:03:22.434Z,72.70
2018-08-24T07:04:26.468Z,71.90
2018-08-24T07:05:31.425Z,70.70
2018-08-24T07:06:34.952Z,71.60
2018-08-24T07:07:38.419Z,72.10
2018-08-24T07:08:41.963Z,71.80
2018-08-24T07:09:45.969Z,71.70
2018-08-24T07:10:49.747Z,72.10
2018-08-24T07:11:53.352Z,71.60
2018-08-24T07:12:56.904Z,72.30
2018-08-24T07:14:00.295Z,72.40
2018-08-24T07:15:03.675Z,72.40
2018-08-24T07:16:07.512Z,72.30
2018-08-24T07:17:11.002Z,73.10
2018-08-24T07:18:14.385Z,72.40
2018-08-24T07:19:17.983Z,72.10
2018-08-24T07:20:21.645Z,72.40
2018-08-24T07:21:25.102Z,72.50
2018-08-24T07:22:28.856Z,72.40
2018-08-24T07:23:32.450Z,72.00
2018-08-24T07:24:35.932Z,71.50
2018-08-24T07:25:39.678Z,71.60
2018-08-24T07:26:43.289Z,71.70
2018-08-24T07:27:47.291Z,72.60
2018-08-24T07:28:50.770Z,72.60
2018-08-24T07:29:54.265Z,71.80
2018-08-24T07:30:57.950Z,70.60
2018-08-24T07:32:01.583Z,71.80
2018-08-24T07:33:05.374Z,71.30
2018-08-24T07:34:08.886Z,71.50
2018-08-24T07:35:13.627Z,71.50
2018-08-24T07:36:17.748Z,71.20
2018-08-24T07:37:21.377Z,71.40
2018-08-24T07:38:24.940Z,71.80
2018-08-24T07:39:28.417Z,71.70
2018-08-24T07:40:32.116Z,71.50
2018-08-24T07:41:35.931Z,72.20
2018-08-24T07:42:39.910Z,70.80
2018-08-24T07:43:43.354Z,71.10
2018-08-24T07:44:52.041Z,71.80
2018-08-24T07:45:55.595Z,71.50
2018-08-24T07:46:59.238Z,70.40
2018-08-24T07:48:03.295Z,70.60
2018-08-24T07:49:07.643Z,70.80
2018-08-24T07:50:11.186Z,71.10
2018-08-24T07:51:14.800Z,70.70
2018-08-24T07:52:18.406Z,70.30
2018-08-24T07:53:21.849Z,71.20
2018-08-24T07:54:25.328Z,70.90
2018-08-24T07:55:29.155Z,70.80
2018-08-24T07:56:32.786Z,70.90
2018-08-24T07:57:36.468Z,70.10
2018-08-24T07:58:39.975Z,70.20
2018-08-24T07:59:43.837Z,69.80
2018-08-24T08:00:47.781Z,70.00
2018-08-24T08:01:51.527Z,70.40
2018-08-24T08:02:54.966Z,69.80
2018-08-24T08:04:00.152Z,69.60
2018-08-24T08:05:03.672Z,69.40
2018-08-24T08:06:08.235Z,69.80
2018-08-24T08:07:12.845Z,69.70
2018-08-24T08:08:17.493Z,69.40
2018-08-24T08:09:22.039Z,70.40
2018-08-24T08:10:29.943Z,70.30
2018-08-24T08:11:38.528Z,68.50
2018-08-24T08:12:42.102Z,70.00
2018-08-24T08:13:45.671Z,69.80
2018-08-24T08:14:54.718Z,70.00
2018-08-24T08:15:58.252Z,69.40
2018-08-24T08:17:02.598Z,68.50
2018-08-24T08:18:06.130Z,69.70
2018-08-24T08:19:10.064Z,68.10
2018-08-24T08:20:13.710Z,66.30
2018-08-24T08:21:17.060Z,66.40
2018-08-24T08:22:20.464Z,66.20
2018-08-24T08:23:23.798Z,66.90
2018-08-24T08:24:27.490Z,66.30
2018-08-24T08:25:31.191Z,65.80
2018-08-24T08:26:34.684Z,65.40
2018-08-24T08:27:38.058Z,64.50
2018-08-24T08:28:41.595Z,64.20
2018-08-24T08:29:50.831Z,64.00
2018-08-24T08:30:54.518Z,63.40
2018-08-24T08:31:58.238Z,63.30
2018-08-24T08:33:01.750Z,64.90
2018-08-24T08:34:05.271Z,64.90
2018-08-24T08:35:09.277Z,64.40
2018-08-24T08:36:12.814Z,64.60
2018-08-24T08:37:16.548Z,64.90
2018-08-24T08:38:19.948Z,64.70
2018-08-24T08:39:23.376Z,63.80
2018-08-24T08:40:26.843Z,64.60
2018-08-24T08:41:30.399Z,64.00
2018-08-24T08:42:33.991Z,63.50
2018-08-24T08:43:37.628Z,63.70
2018-08-24T08:44:40.998Z,62.50
2018-08-24T08:45:44.468Z,62.10
2018-08-24T08:46:47.962Z,61.70
2018-08-24T08:47:51.639Z,62.00
2018-08-24T08:48:55.360Z,61.80
2018-08-24T08:49:58.628Z,61.70
2018-08-24T08:51:02.012Z,62.30
2018-08-24T08:52:05.386Z,62.40
2018-08-24T08:53:08.969Z,62.40
2018-08-24T08:54:12.691Z,63.00
2018-08-24T08:55:16.055Z,62.60
2018-08-24T08:56:19.526Z,61.50
2018-08-24T08:57:22.889Z,62.20
2018-08-24T08:58:26.269Z,61.30
2018-08-24T08:59:29.816Z,63.40
2018-08-24T09:00:33.266Z,62.40
2018-08-24T09:01:36.724Z,62.70
2018-08-24T09:02:40.036Z,62.80
2018-08-24T09:03:43.763Z,63.00
2018-08-24T09:04:47.118Z,62.90
2018-08-24T09:05:50.732Z,63.50
2018-08-24T09:06:54.176Z,63.30
2018-08-24T09:07:57.668Z,63.40
2018-08-24T09:09:01.154Z,62.90
2018-08-24T09:10:04.787Z,62.10
2018-08-24T09:11:08.441Z,62.80
2018-08-24T09:12:11.959Z,61.50
2018-08-24T09:13:15.637Z,62.00
2018-08-24T09:14:19.270Z,62.20
2018-08-24T09:15:22.727Z,62.60
2018-08-24T09:16:26.156Z,62.20
2018-08-24T09:17:35.467Z,61.20
2018-08-24T09:18:44.785Z,61.10
2018-08-24T09:19:54.094Z,61.20
2018-08-24T09:21:03.433Z,61.60
2018-08-24T09:22:12.605Z,60.80
2018-08-24T09:23:21.782Z,61.10
2018-08-24T09:24:30.830Z,62.10
2018-08-24T09:25:40.009Z,61.80
2018-08-24T09:26:48.932Z,61.40
2018-08-24T09:27:57.915Z,61.80
2018-08-24T09:29:06.406Z,63.60
2018-08-24T09:30:09.784Z,62.90
2018-08-24T09:31:31.470Z,63.20
2018-08-24T09:32:34.932Z,63.70
2018-08-24T09:33:38.299Z,63.90
2018-08-24T09:34:41.760Z,63.40
2018-08-24T09:35:45.640Z,63.40
2018-08-24T09:36:49.172Z,63.40
2018-08-24T09:37:52.670Z,63.70
2018-08-24T09:38:56.360Z,64.20
2018-08-24T09:39:59.708Z,64.20
2018-08-24T09:41:03.430Z,65.10
2018-08-24T09:42:06.856Z,66.00
2018-08-24T09:43:15.966Z,66.60
2018-08-24T09:44:19.508Z,65.60
2018-08-24T09:45:23.090Z,66.20
2018-08-24T09:46:32.087Z,66.70
2018-08-24T09:47:41.000Z,66.10
2018-08-24T09:48:49.966Z,66.00
2018-08-24T09:49:53.683Z,65.60
2018-08-24T09:51:02.903Z,65.70
2018-08-24T09:52:11.979Z,65.50
2018-08-24T09:53:20.852Z,65.70
2018-08-24T09:54:24.135Z,65.70
2018-08-24T09:55:32.324Z,64.80
2018-08-24T09:56:36.936Z,65.20
2018-08-24T09:57:40.374Z,65.90
2018-08-24T09:58:44.006Z,64.70
2018-08-24T09:59:47.520Z,65.00
2018-08-24T10:00:56.450Z,65.20
2018-08-24T10:02:05.601Z,65.30
2018-08-24T10:05:21.245Z,64.30
2018-08-24T10:06:30.400Z,65.00
2018-08-24T10:07:38.424Z,65.90
2018-08-24T10:08:49.002Z,65.70
2018-08-24T10:09:52.733Z,64.50
2018-08-24T10:10:56.301Z,66.80
2018-08-24T10:11:59.727Z,65.10
2018-08-24T10:13:03.418Z,65.80
2018-08-24T10:14:07.523Z,65.20
2018-08-24T10:15:11.351Z,64.50
2018-08-24T10:16:15.721Z,63.90
2018-08-24T10:17:23.759Z,64.20
2018-08-24T10:18:27.210Z,63.00
2018-08-24T10:19:30.585Z,63.80
2018-08-24T10:20:34.023Z,62.20
2018-08-24T10:21:37.581Z,61.90
2018-08-24T10:22:40.987Z,62.40
2018-08-24T10:23:44.579Z,62.10
2018-08-24T10:24:48.199Z,62.90
2018-08-24T10:25:51.814Z,63.70
2018-08-24T10:26:55.491Z,63.20
2018-08-24T10:27:59.285Z,62.90
2018-08-24T10:29:03.824Z,62.60
2018-08-24T10:30:07.467Z,62.00
2018-08-24T10:31:11.156Z,62.00
2018-08-24T10:32:14.607Z,62.50
2018-08-24T10:33:18.166Z,61.80
2018-08-24T10:34:21.608Z,62.90
2018-08-24T10:35:24.928Z,63.20
2018-08-24T10:36:28.356Z,60.70
2018-08-24T10:37:32.040Z,60.10
2018-08-24T10:38:35.381Z,60.30
2018-08-24T10:39:39.058Z,60.20
2018-08-24T10:40:42.488Z,59.40
2018-08-24T10:41:46.014Z,60.30
2018-08-24T10:42:49.375Z,60.10
2018-08-24T10:43:52.863Z,60.50
2018-08-24T10:44:56.323Z,60.70
2018-08-24T10:45:59.923Z,59.60
2018-08-24T10:47:04.024Z,59.80
2018-08-24T10:48:07.362Z,58.30
2018-08-24T10:49:10.950Z,58.80
2018-08-24T10:50:14.407Z,59.20
2018-08-24T10:51:17.856Z,59.50
2018-08-24T10:52:21.356Z,60.30
2018-08-24T10:53:24.802Z,60.20
2018-08-24T10:54:28.111Z,59.10
2018-08-24T10:55:31.727Z,59.70
2018-08-24T10:56:35.294Z,60.40
2018-08-24T10:57:38.683Z,60.70
2018-08-24T10:58:42.148Z,59.70
2018-08-24T10:59:45.451Z,61.00
2018-08-24T11:00:48.784Z,60.20
2018-08-24T11:01:52.087Z,59.80
2018-08-24T11:02:55.555Z,59.00
2018-08-24T11:03:58.976Z,58.70
2018-08-24T11:05:02.676Z,59.20
2018-08-24T11:06:06.013Z,59.40
2018-08-24T11:07:09.572Z,57.60
2018-08-24T11:08:12.929Z,57.10
2018-08-24T11:09:16.646Z,57.30
2018-08-24T11:10:20.191Z,56.80
2018-08-24T11:11:23.961Z,56.10
2018-08-24T11:12:30.316Z,56.60
2018-08-24T11:13:33.731Z,57.10
2018-08-24T11:14:37.251Z,56.20
2018-08-24T11:15:40.747Z,56.70
2018-08-24T11:16:44.168Z,56.20
2018-08-24T11:17:53.463Z,56.40
2018-08-24T11:18:57.030Z,56.90
2018-08-24T11:20:00.619Z,57.10
2018-08-24T11:21:04.049Z,57.40
2018-08-24T11:22:07.417Z,57.00
2018-08-24T11:23:11.089Z,56.50
2018-08-24T11:24:14.519Z,56.70
2018-08-24T11:25:18.146Z,56.20
2018-08-24T11:26:21.586Z,56.30
2018-08-24T11:27:25.013Z,56.40
2018-08-24T11:28:28.454Z,56.90
2018-08-24T11:29:31.916Z,55.80
2018-08-24T11:30:35.499Z,55.80
2018-08-24T11:31:39.244Z,54.40
2018-08-24T11:32:42.768Z,54.80
2018-08-24T11:33:46.215Z,52.30
2018-08-24T11:34:49.950Z,51.20
2018-08-24T11:35:53.447Z,50.70
2018-08-24T11:36:56.954Z,52.20
2018-08-24T11:38:00.720Z,52.20
2018-08-24T11:39:06.508Z,52.10
2018-08-24T11:40:10.072Z,52.30
2018-08-24T11:41:13.899Z,50.70
2018-08-24T11:42:17.250Z,52.00
2018-08-24T11:43:20.790Z,52.30
2018-08-24T11:44:24.294Z,52.20
2018-08-24T11:45:27.763Z,51.30
2018-08-24T11:46:31.345Z,50.90
2018-08-24T11:47:34.901Z,49.80
2018-08-24T11:48:38.380Z,51.30
2018-08-24T11:49:41.709Z,50.90
2018-08-24T11:50:45.148Z,50.50
2018-08-24T11:51:55.196Z,51.10
2018-08-24T11:52:58.648Z,51.50
2018-08-24T11:54:02.273Z,50.80
2018-08-24T11:55:06.060Z,50.70
2018-08-24T11:56:09.627Z,51.80
2018-08-24T11:57:13.760Z,51.20
2018-08-24T11:58:17.911Z,50.20
2018-08-24T11:59:21.663Z,50.70
2018-08-24T12:00:34.924Z,51.00
2018-08-24T12:01:38.342Z,51.00
2018-08-24T12:02:41.675Z,51.10
2018-08-24T12:03:45.365Z,51.70
2018-08-24T12:04:49.465Z,52.00
2018-08-24T12:05:53.398Z,52.30
2018-08-24T12:06:57.010Z,49.90
2018-08-24T12:08:00.487Z,49.10
2018-08-24T12:09:05.824Z,48.30
2018-08-24T12:10:09.725Z,48.30
2018-08-24T12:11:13.292Z,47.30
2018-08-24T12:12:16.969Z,48.80
2018-08-24T12:13:20.559Z,48.90
2018-08-24T12:14:24.266Z,47.60
2018-08-24T12:15:27.719Z,47.60
2018-08-24T12:16:31.142Z,48.50
2018-08-24T12:17:36.576Z,47.70
2018-08-24T12:18:40.304Z,47.50
2018-08-24T12:19:43.720Z,47.60
2018-08-24T12:20:47.133Z,45.10
2018-08-24T12:21:50.827Z,45.60
2018-08-24T12:22:54.496Z,45.10
2018-08-24T12:23:58.335Z,44.40
2018-08-24T12:25:01.808Z,44.40
2018-08-24T12:26:05.819Z,42.90
2018-08-24T12:27:10.008Z,42.50
2018-08-24T12:28:13.884Z,40.90
2018-08-24T12:29:18.097Z,41.90
2018-08-24T12:30:21.819Z,41.60
2018-08-24T12:31:25.461Z,41.50
2018-08-24T12:32:29.062Z,40.60
2018-08-24T12:33:32.787Z,41.30
2018-08-24T12:34:36.480Z,41.60
2018-08-24T12:35:39.859Z,42.70
2018-08-24T12:36:43.372Z,43.10
2018-08-24T12:37:47.740Z,44.20
2018-08-24T12:38:51.437Z,42.90
2018-08-24T12:39:55.271Z,43.70
2018-08-24T12:40:58.760Z,43.60
2018-08-24T12:42:02.868Z,42.70
2018-08-24T12:43:06.583Z,43.40
2018-08-24T12:44:10.203Z,42.10
2018-08-24T12:45:14.822Z,42.90
2018-08-24T12:46:20.019Z,43.70
2018-08-24T12:47:24.547Z,43.20
2018-08-24T12:48:27.990Z,44.00
2018-08-24T12:49:31.741Z,42.70
2018-08-24T12:50:35.440Z,42.70
2018-08-24T12:51:38.997Z,42.40
2018-08-24T12:52:42.591Z,42.80
2018-08-24T12:53:46.431Z,42.90
2018-08-24T12:54:50.389Z,41.80
2018-08-24T12:55:55.793Z,42.00
2018-08-24T12:56:59.407Z,41.30
2018-08-24T12:58:02.873Z,42.20
2018-08-24T12:59:06.690Z,42.30
2018-08-24T13:00:10.818Z,41.80
2018-08-24T13:01:14.347Z,42.30
2018-08-24T13:02:18.853Z,40.80
2018-08-24T13:03:22.730Z,40.50
2018-08-24T13:04:26.422Z,40.10
2018-08-24T13:05:29.997Z,39.60
2018-08-24T13:06:33.435Z,38.80
2018-08-24T13:07:36.811Z,38.70
2018-08-24T13:08:40.730Z,39.30
2018-08-24T13:09:44.383Z,37.80
2018-08-24T13:10:47.936Z,38.10
2018-08-24T13:11:51.462Z,38.60
2018-08-24T13:12:54.845Z,39.60
2018-08-24T13:13:58.494Z,41.00
2018-08-24T13:15:02.001Z,41.60
2018-08-24T13:16:05.968Z,42.50
2018-08-24T13:17:09.907Z,43.40
2018-08-24T13:18:13.466Z,43.90
2018-08-24T13:19:17.238Z,45.10
2018-08-24T13:20:20.604Z,45.20
2018-08-24T13:21:23.933Z,45.30
2018-08-24T13:22:27.626Z,46.00
2018-08-24T13:23:31.123Z,46.10
2018-08-24T13:24:34.757Z,45.90
2018-08-24T13:25:38.165Z,46.80
2018-08-24T13:26:41.619Z,47.40
2018-08-24T13:27:44.970Z,47.60
2018-08-24T13:28:48.478Z,48.10
2018-08-24T13:29:52.126Z,47.60
2018-08-24T13:30:55.656Z,47.40
2018-08-24T13:31:59.083Z,46.90
2018-08-24T13:33:02.516Z,46.80
2018-08-24T13:34:06.156Z,47.70
2018-08-24T13:35:09.684Z,48.50
2018-08-24T13:36:13.238Z,47.60
2018-08-24T13:37:16.597Z,48.00
2018-08-24T13:38:20.195Z,48.10
2018-08-24T13:39:23.981Z,47.20
2018-08-24T13:40:27.447Z,47.30
2018-08-24T13:41:31.000Z,46.40
2018-08-24T13:42:34.299Z,46.70
2018-08-24T13:43:37.629Z,46.10
2018-08-24T13:44:40.975Z,46.20
2018-08-24T13:45:44.273Z,47.00
2018-08-24T13:46:47.780Z,46.50
2018-08-24T13:49:03.398Z,46.30